sensor_id;sensor_type;location;lat;lon;timestamp;temperature;humidity
11107;DHT22;5607;48.302;14.294;2022-08-19T00:00:18;22.30;1.00
11107;DHT22;5607;48.302;14.294;2022-08-19T00:03:05;22.10;1.00
11107;DHT22;5607;48.302;14.294;2022-08-19T00:05:52;21.90;1.00
11107;DHT22;5607;48.302;14.294;2022-08-19T00:08:39;21.90;1.00
11107;DHT22;5607;48.302;14.294;2022-08-19T00:11:25;21.90;1.00
11107;DHT22;5607;48.302;14.294;2022-08-19T00:14:14;21.90;1.00
11107;DHT22;5607;48.302;14.294;2022-08-19T00:17:01;22.00;1.00
11107;DHT22;5607;48.302;14.294;2022-08-19T00:19:48;22.10;1.00
11107;DHT22;5607;48.302;14.294;2022-08-19T00:22:35;22.10;1.00
11107;DHT22;5607;48.302;14.294;2022-08-19T00:25:21;22.10;1.00
11107;DHT22;5607;48.302;14.294;2022-08-19T00:28:07;22.00;1.00
11107;DHT22;5607;48.302;14.294;2022-08-19T00:30:54;22.00;1.00
11107;DHT22;5607;48.302;14.294;2022-08-19T00:33:40;22.00;1.00
11107;DHT22;5607;48.302;14.294;2022-08-19T00:36:26;22.00;1.00
11107;DHT22;5607;48.302;14.294;2022-08-19T00:39:15;22.00;1.00
11107;DHT22;5607;48.302;14.294;2022-08-19T00:42:01;22.00;1.00
11107;DHT22;5607;48.302;14.294;2022-08-19T00:44:48;21.90;1.00
11107;DHT22;5607;48.302;14.294;2022-08-19T00:47:35;21.90;1.00
11107;DHT22;5607;48.302;14.294;2022-08-19T00:50:21;21.90;1.00
11107;DHT22;5607;48.302;14.294;2022-08-19T00:53:08;21.80;1.00
11107;DHT22;5607;48.302;14.294;2022-08-19T00:55:55;21.80;1.00
11107;DHT22;5607;48.302;14.294;2022-08-19T00:58:42;21.80;1.00
11107;DHT22;5607;48.302;14.294;2022-08-19T01:01:28;21.90;1.00
11107;DHT22;5607;48.302;14.294;2022-08-19T01:04:15;22.00;1.00
11107;DHT22;5607;48.302;14.294;2022-08-19T01:07:01;21.90;1.00
11107;DHT22;5607;48.302;14.294;2022-08-19T01:09:47;21.90;1.00
11107;DHT22;5607;48.302;14.294;2022-08-19T01:12:34;21.80;1.00
11107;DHT22;5607;48.302;14.294;2022-08-19T01:15:25;21.70;1.00
11107;DHT22;5607;48.302;14.294;2022-08-19T01:18:13;21.70;1.00
11107;DHT22;5607;48.302;14.294;2022-08-19T01:21:02;21.80;1.00
11107;DHT22;5607;48.302;14.294;2022-08-19T01:23:51;21.70;1.00
11107;DHT22;5607;48.302;14.294;2022-08-19T01:26:39;21.70;1.00
11107;DHT22;5607;48.302;14.294;2022-08-19T01:29:26;21.60;1.00
11107;DHT22;5607;48.302;14.294;2022-08-19T01:32:13;21.50;1.00
11107;DHT22;5607;48.302;14.294;2022-08-19T01:35:01;21.50;1.00
11107;DHT22;5607;48.302;14.294;2022-08-19T01:37:52;21.40;1.00
11107;DHT22;5607;48.302;14.294;2022-08-19T01:40:39;21.40;1.00
11107;DHT22;5607;48.302;14.294;2022-08-19T01:43:25;21.20;1.00
11107;DHT22;5607;48.302;14.294;2022-08-19T01:46:12;21.20;1.00
11107;DHT22;5607;48.302;14.294;2022-08-19T01:48:58;21.20;1.00
11107;DHT22;5607;48.302;14.294;2022-08-19T01:51:45;21.40;1.00
11107;DHT22;5607;48.302;14.294;2022-08-19T01:54:31;21.50;1.00
11107;DHT22;5607;48.302;14.294;2022-08-19T01:57:18;21.50;1.00
11107;DHT22;5607;48.302;14.294;2022-08-19T02:00:05;21.50;1.00
11107;DHT22;5607;48.302;14.294;2022-08-19T02:02:52;21.50;1.00
11107;DHT22;5607;48.302;14.294;2022-08-19T02:05:41;21.50;1.00
11107;DHT22;5607;48.302;14.294;2022-08-19T02:08:27;21.40;1.00
11107;DHT22;5607;48.302;14.294;2022-08-19T02:11:21;21.40;1.00
11107;DHT22;5607;48.302;14.294;2022-08-19T02:14:08;21.30;1.00
11107;DHT22;5607;48.302;14.294;2022-08-19T02:16:54;21.20;1.00
11107;DHT22;5607;48.302;14.294;2022-08-19T02:19:40;21.10;1.00
11107;DHT22;5607;48.302;14.294;2022-08-19T02:22:27;21.10;1.00
11107;DHT22;5607;48.302;14.294;2022-08-19T02:25:14;21.10;1.00
11107;DHT22;5607;48.302;14.294;2022-08-19T02:28:00;21.30;1.00
11107;DHT22;5607;48.302;14.294;2022-08-19T02:30:47;21.30;1.00
11107;DHT22;5607;48.302;14.294;2022-08-19T02:33:33;21.40;1.00
11107;DHT22;5607;48.302;14.294;2022-08-19T02:36:19;21.40;1.00
11107;DHT22;5607;48.302;14.294;2022-08-19T02:39:06;21.50;1.00
11107;DHT22;5607;48.302;14.294;2022-08-19T02:41:52;21.50;1.00
11107;DHT22;5607;48.302;14.294;2022-08-19T02:44:38;21.60;1.00
11107;DHT22;5607;48.302;14.294;2022-08-19T02:47:25;21.60;1.00
11107;DHT22;5607;48.302;14.294;2022-08-19T02:50:11;21.60;1.00
11107;DHT22;5607;48.302;14.294;2022-08-19T02:52:58;21.70;1.00
11107;DHT22;5607;48.302;14.294;2022-08-19T02:55:45;21.70;1.00
11107;DHT22;5607;48.302;14.294;2022-08-19T02:58:32;21.80;1.00
11107;DHT22;5607;48.302;14.294;2022-08-19T03:04:08;21.60;1.00
11107;DHT22;5607;48.302;14.294;2022-08-19T03:06:54;21.60;1.00
11107;DHT22;5607;48.302;14.294;2022-08-19T03:09:41;21.60;1.00
11107;DHT22;5607;48.302;14.294;2022-08-19T03:12:28;21.50;1.00
11107;DHT22;5607;48.302;14.294;2022-08-19T03:15:14;21.50;1.00
11107;DHT22;5607;48.302;14.294;2022-08-19T03:18:01;21.50;1.00
11107;DHT22;5607;48.302;14.294;2022-08-19T03:20:48;21.50;1.00
11107;DHT22;5607;48.302;14.294;2022-08-19T03:23:35;21.40;1.00
11107;DHT22;5607;48.302;14.294;2022-08-19T03:26:21;21.50;1.00
11107;DHT22;5607;48.302;14.294;2022-08-19T03:29:08;21.40;1.00
11107;DHT22;5607;48.302;14.294;2022-08-19T03:31:56;21.50;1.00
11107;DHT22;5607;48.302;14.294;2022-08-19T03:34:43;21.50;1.00
11107;DHT22;5607;48.302;14.294;2022-08-19T03:37:29;21.40;1.00
11107;DHT22;5607;48.302;14.294;2022-08-19T03:40:15;21.30;1.00
11107;DHT22;5607;48.302;14.294;2022-08-19T03:43:02;21.30;1.00
11107;DHT22;5607;48.302;14.294;2022-08-19T03:45:48;21.30;1.00
11107;DHT22;5607;48.302;14.294;2022-08-19T03:48:35;21.30;1.00
11107;DHT22;5607;48.302;14.294;2022-08-19T03:51:26;21.20;1.00
11107;DHT22;5607;48.302;14.294;2022-08-19T03:54:13;21.20;1.00
11107;DHT22;5607;48.302;14.294;2022-08-19T03:57:00;21.10;1.00
11107;DHT22;5607;48.302;14.294;2022-08-19T03:59:46;21.20;1.00
11107;DHT22;5607;48.302;14.294;2022-08-19T04:02:32;21.30;1.00
11107;DHT22;5607;48.302;14.294;2022-08-19T04:05:19;21.40;1.00
11107;DHT22;5607;48.302;14.294;2022-08-19T04:08:06;21.40;1.00
11107;DHT22;5607;48.302;14.294;2022-08-19T04:10:52;21.40;1.00
11107;DHT22;5607;48.302;14.294;2022-08-19T04:13:39;21.40;1.00
11107;DHT22;5607;48.302;14.294;2022-08-19T04:16:26;21.40;1.00
11107;DHT22;5607;48.302;14.294;2022-08-19T04:19:16;21.40;1.00
11107;DHT22;5607;48.302;14.294;2022-08-19T04:22:03;21.50;1.00
11107;DHT22;5607;48.302;14.294;2022-08-19T04:24:50;21.50;1.00
11107;DHT22;5607;48.302;14.294;2022-08-19T04:27:36;21.50;1.00
11107;DHT22;5607;48.302;14.294;2022-08-19T04:30:22;21.60;1.00
11107;DHT22;5607;48.302;14.294;2022-08-19T04:33:09;21.60;1.00
11107;DHT22;5607;48.302;14.294;2022-08-19T04:35:55;21.70;1.00
11107;DHT22;5607;48.302;14.294;2022-08-19T04:38:44;21.80;1.00
11107;DHT22;5607;48.302;14.294;2022-08-19T04:41:30;21.80;1.00
11107;DHT22;5607;48.302;14.294;2022-08-19T04:44:35;21.90;1.00
11107;DHT22;5607;48.302;14.294;2022-08-19T04:47:21;21.70;1.00
11107;DHT22;5607;48.302;14.294;2022-08-19T04:50:08;21.40;1.00
11107;DHT22;5607;48.302;14.294;2022-08-19T04:52:57;21.40;1.00
11107;DHT22;5607;48.302;14.294;2022-08-19T04:55:43;21.50;1.00
11107;DHT22;5607;48.302;14.294;2022-08-19T04:58:30;21.50;1.00
11107;DHT22;5607;48.302;14.294;2022-08-19T05:01:23;21.20;1.00
11107;DHT22;5607;48.302;14.294;2022-08-19T05:04:09;21.20;1.00
11107;DHT22;5607;48.302;14.294;2022-08-19T05:06:56;21.20;1.00
11107;DHT22;5607;48.302;14.294;2022-08-19T05:09:42;21.10;1.00
11107;DHT22;5607;48.302;14.294;2022-08-19T05:12:28;21.10;1.00
11107;DHT22;5607;48.302;14.294;2022-08-19T05:15:15;21.20;1.00
11107;DHT22;5607;48.302;14.294;2022-08-19T05:18:01;21.20;1.00
11107;DHT22;5607;48.302;14.294;2022-08-19T05:21:09;21.10;1.00
11107;DHT22;5607;48.302;14.294;2022-08-19T05:24:26;21.10;1.00
11107;DHT22;5607;48.302;14.294;2022-08-19T05:27:12;21.20;1.20
11107;DHT22;5607;48.302;14.294;2022-08-19T05:29:59;21.30;3.50
11107;DHT22;5607;48.302;14.294;2022-08-19T05:32:46;21.30;10.90
11107;DHT22;5607;48.302;14.294;2022-08-19T05:35:32;21.50;1.50
11107;DHT22;5607;48.302;14.294;2022-08-19T05:38:18;21.60;1.80
11107;DHT22;5607;48.302;14.294;2022-08-19T05:41:08;21.60;4.30
11107;DHT22;5607;48.302;14.294;2022-08-19T05:43:55;21.70;2.60
11107;DHT22;5607;48.302;14.294;2022-08-19T05:46:42;21.70;1.00
11107;DHT22;5607;48.302;14.294;2022-08-19T05:49:30;21.60;2.30
11107;DHT22;5607;48.302;14.294;2022-08-19T05:52:18;21.70;7.70
11107;DHT22;5607;48.302;14.294;2022-08-19T05:55:04;21.70;2.50
11107;DHT22;5607;48.302;14.294;2022-08-19T05:57:51;21.70;2.00
11107;DHT22;5607;48.302;14.294;2022-08-19T06:00:37;21.80;6.60
11107;DHT22;5607;48.302;14.294;2022-08-19T06:03:24;21.90;5.30
11107;DHT22;5607;48.302;14.294;2022-08-19T06:06:12;21.90;4.10
11107;DHT22;5607;48.302;14.294;2022-08-19T06:09:00;22.10;2.70
11107;DHT22;5607;48.302;14.294;2022-08-19T06:11:54;22.10;2.80
11107;DHT22;5607;48.302;14.294;2022-08-19T06:14:40;22.20;1.00
11107;DHT22;5607;48.302;14.294;2022-08-19T06:17:28;22.30;1.00
11107;DHT22;5607;48.302;14.294;2022-08-19T06:20:15;22.30;1.00
11107;DHT22;5607;48.302;14.294;2022-08-19T06:23:03;22.50;1.00
11107;DHT22;5607;48.302;14.294;2022-08-19T06:25:50;22.70;1.00
11107;DHT22;5607;48.302;14.294;2022-08-19T06:28:36;22.90;1.00
11107;DHT22;5607;48.302;14.294;2022-08-19T06:31:24;23.20;1.00
11107;DHT22;5607;48.302;14.294;2022-08-19T06:34:11;23.20;1.00
11107;DHT22;5607;48.302;14.294;2022-08-19T06:36:59;23.40;1.00
11107;DHT22;5607;48.302;14.294;2022-08-19T06:39:47;23.50;1.00
11107;DHT22;5607;48.302;14.294;2022-08-19T06:42:34;23.60;1.00
11107;DHT22;5607;48.302;14.294;2022-08-19T06:45:21;23.50;1.00
11107;DHT22;5607;48.302;14.294;2022-08-19T06:48:08;23.60;1.00
11107;DHT22;5607;48.302;14.294;2022-08-19T06:50:54;23.70;1.00
11107;DHT22;5607;48.302;14.294;2022-08-19T06:53:41;23.70;1.00
11107;DHT22;5607;48.302;14.294;2022-08-19T06:56:32;23.80;1.00
11107;DHT22;5607;48.302;14.294;2022-08-19T06:59:23;24.00;1.00
11107;DHT22;5607;48.302;14.294;2022-08-19T07:02:13;24.10;1.00
11107;DHT22;5607;48.302;14.294;2022-08-19T07:04:59;24.30;1.00
11107;DHT22;5607;48.302;14.294;2022-08-19T07:07:48;24.40;1.00
11107;DHT22;5607;48.302;14.294;2022-08-19T07:10:34;24.40;1.00
11107;DHT22;5607;48.302;14.294;2022-08-19T07:13:22;24.70;1.00
11107;DHT22;5607;48.302;14.294;2022-08-19T07:16:10;24.60;1.00
11107;DHT22;5607;48.302;14.294;2022-08-19T07:18:57;24.50;1.00
11107;DHT22;5607;48.302;14.294;2022-08-19T07:21:44;24.50;1.00
11107;DHT22;5607;48.302;14.294;2022-08-19T07:24:32;24.40;1.00
11107;DHT22;5607;48.302;14.294;2022-08-19T07:27:18;24.50;1.00
11107;DHT22;5607;48.302;14.294;2022-08-19T07:30:05;24.70;1.00
11107;DHT22;5607;48.302;14.294;2022-08-19T07:32:52;24.60;1.00
11107;DHT22;5607;48.302;14.294;2022-08-19T07:35:38;24.60;1.00
11107;DHT22;5607;48.302;14.294;2022-08-19T07:38:25;24.60;1.00
11107;DHT22;5607;48.302;14.294;2022-08-19T07:41:12;24.70;1.00
11107;DHT22;5607;48.302;14.294;2022-08-19T07:43:59;24.80;1.00
11107;DHT22;5607;48.302;14.294;2022-08-19T07:46:50;24.90;1.00
11107;DHT22;5607;48.302;14.294;2022-08-19T07:49:37;24.90;1.00
11107;DHT22;5607;48.302;14.294;2022-08-19T07:52:24;25.00;1.00
11107;DHT22;5607;48.302;14.294;2022-08-19T07:55:10;25.10;1.00
11107;DHT22;5607;48.302;14.294;2022-08-19T07:57:57;25.20;1.00
11107;DHT22;5607;48.302;14.294;2022-08-19T08:00:44;25.20;1.00
11107;DHT22;5607;48.302;14.294;2022-08-19T08:03:31;25.00;1.00
11107;DHT22;5607;48.302;14.294;2022-08-19T08:06:36;24.70;1.00
11107;DHT22;5607;48.302;14.294;2022-08-19T08:09:42;24.80;1.00
11107;DHT22;5607;48.302;14.294;2022-08-19T08:12:34;24.90;1.00
11107;DHT22;5607;48.302;14.294;2022-08-19T08:15:20;25.20;1.00
11107;DHT22;5607;48.302;14.294;2022-08-19T08:18:07;25.30;1.00
11107;DHT22;5607;48.302;14.294;2022-08-19T08:20:54;25.40;1.00
11107;DHT22;5607;48.302;14.294;2022-08-19T08:23:40;25.50;1.00
11107;DHT22;5607;48.302;14.294;2022-08-19T08:26:27;25.00;1.00
11107;DHT22;5607;48.302;14.294;2022-08-19T08:29:14;25.00;1.00
11107;DHT22;5607;48.302;14.294;2022-08-19T08:32:01;25.10;1.00
11107;DHT22;5607;48.302;14.294;2022-08-19T08:34:47;25.30;1.00
11107;DHT22;5607;48.302;14.294;2022-08-19T08:37:34;25.60;1.00
11107;DHT22;5607;48.302;14.294;2022-08-19T08:40:26;25.70;1.00
11107;DHT22;5607;48.302;14.294;2022-08-19T08:43:33;25.80;1.00
11107;DHT22;5607;48.302;14.294;2022-08-19T08:46:30;25.80;1.00
11107;DHT22;5607;48.302;14.294;2022-08-19T08:49:55;25.80;1.00
11107;DHT22;5607;48.302;14.294;2022-08-19T08:52:33;25.60;1.00
11107;DHT22;5607;48.302;14.294;2022-08-19T08:55:25;25.70;1.00
11107;DHT22;5607;48.302;14.294;2022-08-19T09:01:19;26.40;1.00
11107;DHT22;5607;48.302;14.294;2022-08-19T09:04:06;26.70;1.00
11107;DHT22;5607;48.302;14.294;2022-08-19T09:07:01;26.40;1.00
11107;DHT22;5607;48.302;14.294;2022-08-19T09:09:56;26.30;1.00
11107;DHT22;5607;48.302;14.294;2022-08-19T09:15:40;26.00;1.00
11107;DHT22;5607;48.302;14.294;2022-08-19T09:21:44;25.40;1.00
11107;DHT22;5607;48.302;14.294;2022-08-19T09:24:32;25.30;1.00
11107;DHT22;5607;48.302;14.294;2022-08-19T09:27:19;25.40;1.00
11107;DHT22;5607;48.302;14.294;2022-08-19T09:30:07;25.40;1.00
11107;DHT22;5607;48.302;14.294;2022-08-19T09:32:54;25.20;1.00
11107;DHT22;5607;48.302;14.294;2022-08-19T09:35:41;25.40;1.00
11107;DHT22;5607;48.302;14.294;2022-08-19T09:38:27;25.70;1.00
11107;DHT22;5607;48.302;14.294;2022-08-19T09:41:20;25.80;1.00
11107;DHT22;5607;48.302;14.294;2022-08-19T09:44:06;25.80;1.00
11107;DHT22;5607;48.302;14.294;2022-08-19T09:46:53;25.90;1.00
11107;DHT22;5607;48.302;14.294;2022-08-19T09:49:39;25.90;1.00
11107;DHT22;5607;48.302;14.294;2022-08-19T09:52:25;25.60;1.00
11107;DHT22;5607;48.302;14.294;2022-08-19T09:55:12;25.50;1.00
11107;DHT22;5607;48.302;14.294;2022-08-19T09:58:01;25.50;1.00
11107;DHT22;5607;48.302;14.294;2022-08-19T10:00:48;25.60;1.00
11107;DHT22;5607;48.302;14.294;2022-08-19T10:03:35;25.70;1.00
11107;DHT22;5607;48.302;14.294;2022-08-19T10:06:22;26.00;1.00
11107;DHT22;5607;48.302;14.294;2022-08-19T10:09:09;26.00;1.00
11107;DHT22;5607;48.302;14.294;2022-08-19T10:11:56;26.10;1.00
11107;DHT22;5607;48.302;14.294;2022-08-19T10:14:42;26.00;1.00
11107;DHT22;5607;48.302;14.294;2022-08-19T10:17:29;26.00;1.00
11107;DHT22;5607;48.302;14.294;2022-08-19T10:20:15;26.40;1.00
11107;DHT22;5607;48.302;14.294;2022-08-19T10:23:02;26.60;1.00
11107;DHT22;5607;48.302;14.294;2022-08-19T10:25:49;26.80;1.00
11107;DHT22;5607;48.302;14.294;2022-08-19T10:28:35;26.80;1.00
11107;DHT22;5607;48.302;14.294;2022-08-19T10:31:26;26.60;1.00
11107;DHT22;5607;48.302;14.294;2022-08-19T10:34:12;26.70;1.00
11107;DHT22;5607;48.302;14.294;2022-08-19T10:36:59;26.70;1.00
11107;DHT22;5607;48.302;14.294;2022-08-19T10:39:46;26.80;1.00
11107;DHT22;5607;48.302;14.294;2022-08-19T10:42:34;26.60;1.00
11107;DHT22;5607;48.302;14.294;2022-08-19T10:45:21;26.60;1.00
11107;DHT22;5607;48.302;14.294;2022-08-19T10:48:11;26.70;1.00
11107;DHT22;5607;48.302;14.294;2022-08-19T10:50:58;26.60;1.00
11107;DHT22;5607;48.302;14.294;2022-08-19T10:54:03;26.50;1.00
11107;DHT22;5607;48.302;14.294;2022-08-19T10:56:49;26.30;1.00
11107;DHT22;5607;48.302;14.294;2022-08-19T10:59:38;26.40;1.00
11107;DHT22;5607;48.302;14.294;2022-08-19T11:02:25;26.70;1.00
11107;DHT22;5607;48.302;14.294;2022-08-19T11:05:11;27.00;1.00
11107;DHT22;5607;48.302;14.294;2022-08-19T11:07:58;27.20;1.00
11107;DHT22;5607;48.302;14.294;2022-08-19T11:10:44;27.60;1.00
11107;DHT22;5607;48.302;14.294;2022-08-19T11:13:31;27.60;1.00
11107;DHT22;5607;48.302;14.294;2022-08-19T11:16:20;27.90;1.00
11107;DHT22;5607;48.302;14.294;2022-08-19T11:19:08;28.00;1.00
11107;DHT22;5607;48.302;14.294;2022-08-19T11:21:55;28.20;1.00
11107;DHT22;5607;48.302;14.294;2022-08-19T11:24:41;28.50;1.00
11107;DHT22;5607;48.302;14.294;2022-08-19T11:27:27;28.70;1.00
11107;DHT22;5607;48.302;14.294;2022-08-19T11:30:14;28.90;1.00
11107;DHT22;5607;48.302;14.294;2022-08-19T11:33:01;28.80;1.00
11107;DHT22;5607;48.302;14.294;2022-08-19T11:35:48;28.70;1.00
11107;DHT22;5607;48.302;14.294;2022-08-19T11:38:35;28.50;1.00
11107;DHT22;5607;48.302;14.294;2022-08-19T11:41:22;28.30;1.00
11107;DHT22;5607;48.302;14.294;2022-08-19T11:44:09;28.30;1.00
11107;DHT22;5607;48.302;14.294;2022-08-19T11:46:55;28.20;1.00
11107;DHT22;5607;48.302;14.294;2022-08-19T11:49:42;28.50;1.00
11107;DHT22;5607;48.302;14.294;2022-08-19T11:52:28;29.00;1.00
11107;DHT22;5607;48.302;14.294;2022-08-19T11:55:15;29.60;1.00
11107;DHT22;5607;48.302;14.294;2022-08-19T11:58:02;29.50;1.00
11107;DHT22;5607;48.302;14.294;2022-08-19T12:00:48;29.80;1.00
11107;DHT22;5607;48.302;14.294;2022-08-19T12:03:34;29.90;1.00
11107;DHT22;5607;48.302;14.294;2022-08-19T12:06:22;30.10;1.00
11107;DHT22;5607;48.302;14.294;2022-08-19T12:09:11;30.40;1.00
11107;DHT22;5607;48.302;14.294;2022-08-19T12:11:57;30.50;1.00
11107;DHT22;5607;48.302;14.294;2022-08-19T12:14:44;30.50;1.00
11107;DHT22;5607;48.302;14.294;2022-08-19T12:17:32;30.60;1.00
11107;DHT22;5607;48.302;14.294;2022-08-19T12:20:18;30.70;1.00
11107;DHT22;5607;48.302;14.294;2022-08-19T12:23:05;30.60;1.00
11107;DHT22;5607;48.302;14.294;2022-08-19T12:25:51;30.50;1.00
11107;DHT22;5607;48.302;14.294;2022-08-19T12:28:38;30.70;1.00
11107;DHT22;5607;48.302;14.294;2022-08-19T12:31:25;30.90;1.00
11107;DHT22;5607;48.302;14.294;2022-08-19T12:34:11;30.90;1.00
11107;DHT22;5607;48.302;14.294;2022-08-19T12:36:58;30.90;1.00
11107;DHT22;5607;48.302;14.294;2022-08-19T12:39:44;30.40;1.00
11107;DHT22;5607;48.302;14.294;2022-08-19T12:42:30;30.20;1.00
11107;DHT22;5607;48.302;14.294;2022-08-19T12:45:17;30.40;1.00
11107;DHT22;5607;48.302;14.294;2022-08-19T12:48:03;30.60;1.00
11107;DHT22;5607;48.302;14.294;2022-08-19T12:50:50;30.80;1.00
11107;DHT22;5607;48.302;14.294;2022-08-19T12:53:37;31.20;1.00
11107;DHT22;5607;48.302;14.294;2022-08-19T12:56:23;31.30;1.00
11107;DHT22;5607;48.302;14.294;2022-08-19T12:59:09;31.20;1.00
11107;DHT22;5607;48.302;14.294;2022-08-19T13:01:57;30.90;1.00
11107;DHT22;5607;48.302;14.294;2022-08-19T13:04:43;30.70;1.00
11107;DHT22;5607;48.302;14.294;2022-08-19T13:07:31;30.80;1.00
11107;DHT22;5607;48.302;14.294;2022-08-19T13:10:18;31.10;1.00
11107;DHT22;5607;48.302;14.294;2022-08-19T13:13:06;31.50;1.00
11107;DHT22;5607;48.302;14.294;2022-08-19T13:15:59;31.90;1.00
11107;DHT22;5607;48.302;14.294;2022-08-19T13:18:47;31.70;1.00
11107;DHT22;5607;48.302;14.294;2022-08-19T13:21:34;31.90;1.00
11107;DHT22;5607;48.302;14.294;2022-08-19T13:24:20;32.00;1.00
11107;DHT22;5607;48.302;14.294;2022-08-19T13:27:06;31.90;1.00
11107;DHT22;5607;48.302;14.294;2022-08-19T13:29:53;31.70;1.00
11107;DHT22;5607;48.302;14.294;2022-08-19T13:32:58;32.20;1.00
11107;DHT22;5607;48.302;14.294;2022-08-19T13:36:02;32.30;1.00
11107;DHT22;5607;48.302;14.294;2022-08-19T13:38:52;32.30;1.00
11107;DHT22;5607;48.302;14.294;2022-08-19T13:41:43;32.30;1.00
11107;DHT22;5607;48.302;14.294;2022-08-19T13:44:29;32.40;1.00
11107;DHT22;5607;48.302;14.294;2022-08-19T13:47:15;32.80;1.00
11107;DHT22;5607;48.302;14.294;2022-08-19T13:50:02;33.00;1.00
11107;DHT22;5607;48.302;14.294;2022-08-19T13:52:49;32.90;1.00
11107;DHT22;5607;48.302;14.294;2022-08-19T13:55:37;33.20;1.00
11107;DHT22;5607;48.302;14.294;2022-08-19T13:58:23;33.50;1.00
11107;DHT22;5607;48.302;14.294;2022-08-19T14:01:09;33.10;1.00
11107;DHT22;5607;48.302;14.294;2022-08-19T14:03:56;33.10;1.00
11107;DHT22;5607;48.302;14.294;2022-08-19T14:06:42;33.10;1.00
11107;DHT22;5607;48.302;14.294;2022-08-19T14:09:29;33.40;1.00
11107;DHT22;5607;48.302;14.294;2022-08-19T14:12:18;33.40;1.00
11107;DHT22;5607;48.302;14.294;2022-08-19T14:15:05;32.90;1.00
11107;DHT22;5607;48.302;14.294;2022-08-19T14:17:52;33.10;1.00
11107;DHT22;5607;48.302;14.294;2022-08-19T14:20:38;33.50;1.00
11107;DHT22;5607;48.302;14.294;2022-08-19T14:23:25;34.80;1.00
11107;DHT22;5607;48.302;14.294;2022-08-19T14:26:13;36.80;1.00
11107;DHT22;5607;48.302;14.294;2022-08-19T14:29:00;38.80;1.00
11107;DHT22;5607;48.302;14.294;2022-08-19T14:31:47;40.70;1.00
11107;DHT22;5607;48.302;14.294;2022-08-19T14:34:33;41.80;1.00
11107;DHT22;5607;48.302;14.294;2022-08-19T14:37:20;41.70;1.00
11107;DHT22;5607;48.302;14.294;2022-08-19T14:40:07;42.40;1.00
11107;DHT22;5607;48.302;14.294;2022-08-19T14:42:54;42.10;1.00
11107;DHT22;5607;48.302;14.294;2022-08-19T14:45:45;41.20;1.00
11107;DHT22;5607;48.302;14.294;2022-08-19T14:48:31;40.50;1.00
11107;DHT22;5607;48.302;14.294;2022-08-19T14:51:18;39.50;1.00
11107;DHT22;5607;48.302;14.294;2022-08-19T14:54:05;37.20;1.00
11107;DHT22;5607;48.302;14.294;2022-08-19T14:56:51;36.40;1.00
11107;DHT22;5607;48.302;14.294;2022-08-19T14:59:37;38.10;1.00
11107;DHT22;5607;48.302;14.294;2022-08-19T15:02:24;40.80;1.00
11107;DHT22;5607;48.302;14.294;2022-08-19T15:05:10;42.70;1.00
11107;DHT22;5607;48.302;14.294;2022-08-19T15:07:57;42.80;1.00
11107;DHT22;5607;48.302;14.294;2022-08-19T15:10:43;39.90;1.00
11107;DHT22;5607;48.302;14.294;2022-08-19T15:13:29;37.30;1.00
11107;DHT22;5607;48.302;14.294;2022-08-19T15:16:16;35.40;1.00
11107;DHT22;5607;48.302;14.294;2022-08-19T15:19:03;33.60;1.00
11107;DHT22;5607;48.302;14.294;2022-08-19T15:21:49;32.40;1.00
11107;DHT22;5607;48.302;14.294;2022-08-19T15:24:35;31.60;1.00
11107;DHT22;5607;48.302;14.294;2022-08-19T15:27:24;31.00;1.00
11107;DHT22;5607;48.302;14.294;2022-08-19T15:30:10;30.40;1.00
11107;DHT22;5607;48.302;14.294;2022-08-19T15:32:57;29.70;1.00
11107;DHT22;5607;48.302;14.294;2022-08-19T15:35:43;27.30;1.00
11107;DHT22;5607;48.302;14.294;2022-08-19T15:38:30;26.10;1.00
11107;DHT22;5607;48.302;14.294;2022-08-19T15:41:21;25.40;1.00
11107;DHT22;5607;48.302;14.294;2022-08-19T15:44:15;24.40;1.00
11107;DHT22;5607;48.302;14.294;2022-08-19T15:47:05;23.70;1.00
11107;DHT22;5607;48.302;14.294;2022-08-19T15:49:51;23.10;1.00
11107;DHT22;5607;48.302;14.294;2022-08-19T15:52:49;22.80;1.00
11107;DHT22;5607;48.302;14.294;2022-08-19T15:55:41;22.40;1.00
11107;DHT22;5607;48.302;14.294;2022-08-19T15:58:27;22.00;1.00
11107;DHT22;5607;48.302;14.294;2022-08-19T16:01:32;21.60;1.00
11107;DHT22;5607;48.302;14.294;2022-08-19T16:04:37;21.50;1.00
11107;DHT22;5607;48.302;14.294;2022-08-19T16:07:42;21.30;1.00
11107;DHT22;5607;48.302;14.294;2022-08-19T16:10:28;21.30;1.00
11107;DHT22;5607;48.302;14.294;2022-08-19T16:13:14;21.10;1.00
11107;DHT22;5607;48.302;14.294;2022-08-19T16:16:00;21.20;1.00
11107;DHT22;5607;48.302;14.294;2022-08-19T16:18:47;21.30;1.00
11107;DHT22;5607;48.302;14.294;2022-08-19T16:21:34;21.50;1.00
11107;DHT22;5607;48.302;14.294;2022-08-19T16:24:22;21.50;1.00
11107;DHT22;5607;48.302;14.294;2022-08-19T16:27:09;21.70;1.00
11107;DHT22;5607;48.302;14.294;2022-08-19T16:29:56;21.80;1.00
11107;DHT22;5607;48.302;14.294;2022-08-19T16:32:42;21.80;1.00
11107;DHT22;5607;48.302;14.294;2022-08-19T16:35:29;21.80;1.00
11107;DHT22;5607;48.302;14.294;2022-08-19T16:38:15;22.00;1.00
11107;DHT22;5607;48.302;14.294;2022-08-19T16:41:01;22.20;1.00
11107;DHT22;5607;48.302;14.294;2022-08-19T16:43:48;22.30;1.00
11107;DHT22;5607;48.302;14.294;2022-08-19T16:46:37;22.10;1.00
11107;DHT22;5607;48.302;14.294;2022-08-19T16:49:27;21.80;1.00
11107;DHT22;5607;48.302;14.294;2022-08-19T16:52:13;21.40;1.00
11107;DHT22;5607;48.302;14.294;2022-08-19T16:55:01;21.10;1.00
11107;DHT22;5607;48.302;14.294;2022-08-19T16:57:48;20.80;9.80
11107;DHT22;5607;48.302;14.294;2022-08-19T17:00:35;20.60;27.50
11107;DHT22;5607;48.302;14.294;2022-08-19T17:03:22;20.60;39.70
11107;DHT22;5607;48.302;14.294;2022-08-19T17:06:14;21.00;34.00
11107;DHT22;5607;48.302;14.294;2022-08-19T17:09:01;21.30;20.40
11107;DHT22;5607;48.302;14.294;2022-08-19T17:11:47;21.70;3.40
11107;DHT22;5607;48.302;14.294;2022-08-19T17:14:33;21.80;1.00
11107;DHT22;5607;48.302;14.294;2022-08-19T17:17:20;21.80;1.00
11107;DHT22;5607;48.302;14.294;2022-08-19T17:20:06;21.90;1.00
11107;DHT22;5607;48.302;14.294;2022-08-19T17:22:53;22.00;1.00
11107;DHT22;5607;48.302;14.294;2022-08-19T17:25:41;22.30;1.00
11107;DHT22;5607;48.302;14.294;2022-08-19T17:28:29;22.40;1.00
11107;DHT22;5607;48.302;14.294;2022-08-19T17:31:17;22.50;1.00
11107;DHT22;5607;48.302;14.294;2022-08-19T17:34:03;22.50;1.00
11107;DHT22;5607;48.302;14.294;2022-08-19T17:36:49;22.50;1.00
11107;DHT22;5607;48.302;14.294;2022-08-19T17:39:36;22.40;1.00
11107;DHT22;5607;48.302;14.294;2022-08-19T17:42:23;22.50;1.00
11107;DHT22;5607;48.302;14.294;2022-08-19T17:45:10;22.50;1.00
11107;DHT22;5607;48.302;14.294;2022-08-19T17:47:57;22.40;1.00
11107;DHT22;5607;48.302;14.294;2022-08-19T17:50:43;22.40;1.00
11107;DHT22;5607;48.302;14.294;2022-08-19T17:53:30;22.40;1.00
11107;DHT22;5607;48.302;14.294;2022-08-19T17:56:16;22.30;1.00
11107;DHT22;5607;48.302;14.294;2022-08-19T17:59:03;22.00;1.00
11107;DHT22;5607;48.302;14.294;2022-08-19T18:01:49;21.80;1.00
11107;DHT22;5607;48.302;14.294;2022-08-19T18:04:37;21.60;1.00
11107;DHT22;5607;48.302;14.294;2022-08-19T18:07:23;21.40;1.00